sensor_id;sensor_type;location;lat;lon;timestamp;P1;durP1;ratioP1;P2;durP2;ratioP2
44036;SDS011;62488;-37.670;-63.532;2023-03-02T00:01:27;83.82;;;9.95;;
44036;SDS011;62488;-37.670;-63.532;2023-03-02T00:04:01;76.65;;;9.55;;
44036;SDS011;62488;-37.670;-63.532;2023-03-02T00:06:30;100.50;;;10.68;;
44036;SDS011;62488;-37.670;-63.532;2023-03-02T00:09:00;94.15;;;10.65;;
44036;SDS011;62488;-37.670;-63.532;2023-03-02T00:11:29;91.43;;;10.40;;
44036;SDS011;62488;-37.670;-63.532;2023-03-02T00:13:56;102.47;;;13.93;;
44036;SDS011;62488;-37.670;-63.532;2023-03-02T00:16:24;93.85;;;11.93;;
44036;SDS011;62488;-37.670;-63.532;2023-03-02T00:18:51;92.05;;;11.50;;
44036;SDS011;62488;-37.670;-63.532;2023-03-02T00:21:18;96.28;;;12.80;;
44036;SDS011;62488;-37.670;-63.532;2023-03-02T00:23:45;94.82;;;11.65;;
44036;SDS011;62488;-37.670;-63.532;2023-03-02T00:26:12;75.57;;;8.98;;
44036;SDS011;62488;-37.670;-63.532;2023-03-02T00:28:39;87.55;;;10.55;;
44036;SDS011;62488;-37.670;-63.532;2023-03-02T00:31:06;69.97;;;9.38;;
44036;SDS011;62488;-37.670;-63.532;2023-03-02T00:33:33;53.78;;;7.97;;
44036;SDS011;62488;-37.670;-63.532;2023-03-02T00:36:00;63.47;;;7.65;;
44036;SDS011;62488;-37.670;-63.532;2023-03-02T00:38:27;54.80;;;6.60;;
44036;SDS011;62488;-37.670;-63.532;2023-03-02T00:40:55;58.33;;;7.85;;
44036;SDS011;62488;-37.670;-63.532;2023-03-02T00:43:23;43.75;;;6.97;;
44036;SDS011;62488;-37.670;-63.532;2023-03-02T00:45:53;48.80;;;8.45;;
44036;SDS011;62488;-37.670;-63.532;2023-03-02T00:48:20;41.75;;;5.97;;
44036;SDS011;62488;-37.670;-63.532;2023-03-02T00:50:47;52.67;;;7.82;;
44036;SDS011;62488;-37.670;-63.532;2023-03-02T00:53:14;45.42;;;7.32;;
44036;SDS011;62488;-37.670;-63.532;2023-03-02T00:55:42;42.92;;;7.13;;
44036;SDS011;62488;-37.670;-63.532;2023-03-02T00:58:18;62.85;;;8.98;;
44036;SDS011;62488;-37.670;-63.532;2023-03-02T01:00:46;52.60;;;7.30;;
44036;SDS011;62488;-37.670;-63.532;2023-03-02T01:03:13;41.95;;;8.15;;
44036;SDS011;62488;-37.670;-63.532;2023-03-02T01:05:40;57.30;;;9.05;;
44036;SDS011;62488;-37.670;-63.532;2023-03-02T01:08:07;62.05;;;8.60;;
44036;SDS011;62488;-37.670;-63.532;2023-03-02T01:10:34;56.30;;;11.05;;
44036;SDS011;62488;-37.670;-63.532;2023-03-02T01:13:02;72.22;;;10.98;;
44036;SDS011;62488;-37.670;-63.532;2023-03-02T01:15:30;61.78;;;12.32;;
44036;SDS011;62488;-37.670;-63.532;2023-03-02T01:17:58;56.40;;;10.55;;
44036;SDS011;62488;-37.670;-63.532;2023-03-02T01:20:25;67.45;;;10.40;;
44036;SDS011;62488;-37.670;-63.532;2023-03-02T01:22:54;46.28;;;10.55;;
44036;SDS011;62488;-37.670;-63.532;2023-03-02T01:25:21;68.88;;;11.05;;
44036;SDS011;62488;-37.670;-63.532;2023-03-02T01:27:48;58.72;;;8.77;;
44036;SDS011;62488;-37.670;-63.532;2023-03-02T01:30:15;46.25;;;8.40;;
44036;SDS011;62488;-37.670;-63.532;2023-03-02T01:32:42;47.95;;;9.15;;
44036;SDS011;62488;-37.670;-63.532;2023-03-02T01:35:09;89.75;;;14.30;;
44036;SDS011;62488;-37.670;-63.532;2023-03-02T01:37:37;68.50;;;11.57;;
44036;SDS011;62488;-37.670;-63.532;2023-03-02T01:40:04;39.70;;;6.38;;
44036;SDS011;62488;-37.670;-63.532;2023-03-02T01:42:38;48.78;;;6.13;;
44036;SDS011;62488;-37.670;-63.532;2023-03-02T01:48:07;72.05;;;10.57;;
44036;SDS011;62488;-37.670;-63.532;2023-03-02T01:50:35;52.28;;;8.52;;
44036;SDS011;62488;-37.670;-63.532;2023-03-02T01:53:02;53.92;;;6.50;;
44036;SDS011;62488;-37.670;-63.532;2023-03-02T01:55:30;35.88;;;4.53;;
44036;SDS011;62488;-37.670;-63.532;2023-03-02T01:57:58;38.78;;;5.32;;
44036;SDS011;62488;-37.670;-63.532;2023-03-02T02:00:28;26.25;;;4.72;;
44036;SDS011;62488;-37.670;-63.532;2023-03-02T02:03:02;36.00;;;5.10;;
44036;SDS011;62488;-37.670;-63.532;2023-03-02T02:05:38;27.75;;;3.85;;
44036;SDS011;62488;-37.670;-63.532;2023-03-02T02:08:07;40.80;;;6.43;;
44036;SDS011;62488;-37.670;-63.532;2023-03-02T02:10:34;83.15;;;12.85;;
44036;SDS011;62488;-37.670;-63.532;2023-03-02T02:13:03;68.05;;;8.98;;
44036;SDS011;62488;-37.670;-63.532;2023-03-02T02:15:30;40.65;;;7.47;;
44036;SDS011;62488;-37.670;-63.532;2023-03-02T02:17:57;44.42;;;7.20;;
44036;SDS011;62488;-37.670;-63.532;2023-03-02T02:28:28;28.75;;;5.57;;
44036;SDS011;62488;-37.670;-63.532;2023-03-02T02:36:25;30.95;;;4.75;;
44036;SDS011;62488;-37.670;-63.532;2023-03-02T02:38:59;25.45;;;4.38;;
44036;SDS011;62488;-37.670;-63.532;2023-03-02T02:41:30;50.08;;;7.15;;
44036;SDS011;62488;-37.670;-63.532;2023-03-02T02:44:02;44.42;;;5.55;;
44036;SDS011;62488;-37.670;-63.532;2023-03-02T02:46:29;19.92;;;3.22;;
44036;SDS011;62488;-37.670;-63.532;2023-03-02T02:48:58;30.00;;;4.50;;
44036;SDS011;62488;-37.670;-63.532;2023-03-02T02:51:27;23.40;;;4.15;;
44036;SDS011;62488;-37.670;-63.532;2023-03-02T02:54:02;16.50;;;3.22;;
44036;SDS011;62488;-37.670;-63.532;2023-03-02T02:56:33;22.60;;;3.63;;
44036;SDS011;62488;-37.670;-63.532;2023-03-02T03:01:53;29.10;;;4.78;;
44036;SDS011;62488;-37.670;-63.532;2023-03-02T03:04:22;14.00;;;2.97;;
44036;SDS011;62488;-37.670;-63.532;2023-03-02T03:06:56;24.70;;;3.75;;
44036;SDS011;62488;-37.670;-63.532;2023-03-02T03:09:25;23.23;;;3.65;;
44036;SDS011;62488;-37.670;-63.532;2023-03-02T03:11:57;12.60;;;3.15;;
44036;SDS011;62488;-37.670;-63.532;2023-03-02T03:14:33;33.20;;;3.38;;
44036;SDS011;62488;-37.670;-63.532;2023-03-02T03:17:03;20.88;;;3.10;;
44036;SDS011;62488;-37.670;-63.532;2023-03-02T03:19:37;18.67;;;4.03;;
44036;SDS011;62488;-37.670;-63.532;2023-03-02T03:22:05;18.60;;;3.13;;
44036;SDS011;62488;-37.670;-63.532;2023-03-02T03:24:33;22.55;;;3.63;;
44036;SDS011;62488;-37.670;-63.532;2023-03-02T03:27:00;30.77;;;5.05;;
44036;SDS011;62488;-37.670;-63.532;2023-03-02T03:29:30;23.90;;;4.50;;
44036;SDS011;62488;-37.670;-63.532;2023-03-02T03:31:59;23.23;;;3.75;;
44036;SDS011;62488;-37.670;-63.532;2023-03-02T03:34:27;18.63;;;3.92;;
44036;SDS011;62488;-37.670;-63.532;2023-03-02T03:36:55;24.65;;;3.80;;
44036;SDS011;62488;-37.670;-63.532;2023-03-02T03:39:28;19.67;;;2.65;;
44036;SDS011;62488;-37.670;-63.532;2023-03-02T03:41:56;28.48;;;3.42;;
44036;SDS011;62488;-37.670;-63.532;2023-03-02T03:44:23;23.33;;;3.03;;
44036;SDS011;62488;-37.670;-63.532;2023-03-02T03:46:50;24.92;;;4.55;;
44036;SDS011;62488;-37.670;-63.532;2023-03-02T03:49:17;21.40;;;4.53;;
44036;SDS011;62488;-37.670;-63.532;2023-03-02T03:51:44;19.02;;;3.28;;
44036;SDS011;62488;-37.670;-63.532;2023-03-02T03:54:12;24.05;;;3.53;;
44036;SDS011;62488;-37.670;-63.532;2023-03-02T03:56:41;18.67;;;3.40;;
44036;SDS011;62488;-37.670;-63.532;2023-03-02T03:59:12;17.85;;;3.45;;
44036;SDS011;62488;-37.670;-63.532;2023-03-02T04:01:43;18.20;;;3.63;;
44036;SDS011;62488;-37.670;-63.532;2023-03-02T04:04:13;15.68;;;3.03;;
44036;SDS011;62488;-37.670;-63.532;2023-03-02T04:06:43;25.77;;;3.55;;
44036;SDS011;62488;-37.670;-63.532;2023-03-02T04:09:10;28.65;;;4.15;;
44036;SDS011;62488;-37.670;-63.532;2023-03-02T04:11:43;35.42;;;4.60;;
44036;SDS011;62488;-37.670;-63.532;2023-03-02T04:14:12;21.17;;;3.83;;
44036;SDS011;62488;-37.670;-63.532;2023-03-02T04:16:40;25.98;;;3.25;;
44036;SDS011;62488;-37.670;-63.532;2023-03-02T04:19:10;21.60;;;4.63;;
44036;SDS011;62488;-37.670;-63.532;2023-03-02T04:53:44;16.70;;;3.42;;
44036;SDS011;62488;-37.670;-63.532;2023-03-02T04:56:11;19.25;;;3.72;;
44036;SDS011;62488;-37.670;-63.532;2023-03-02T04:58:38;30.13;;;3.70;;
44036;SDS011;62488;-37.670;-63.532;2023-03-02T05:01:05;12.00;;;2.72;;
44036;SDS011;62488;-37.670;-63.532;2023-03-02T05:03:32;27.73;;;4.28;;
44036;SDS011;62488;-37.670;-63.532;2023-03-02T05:05:59;22.38;;;3.53;;
44036;SDS011;62488;-37.670;-63.532;2023-03-02T05:08:30;20.52;;;2.55;;
44036;SDS011;62488;-37.670;-63.532;2023-03-02T05:10:57;16.83;;;3.42;;
44036;SDS011;62488;-37.670;-63.532;2023-03-02T05:13:24;21.40;;;3.55;;
44036;SDS011;62488;-37.670;-63.532;2023-03-02T05:15:52;28.90;;;3.13;;
44036;SDS011;62488;-37.670;-63.532;2023-03-02T05:20:48;18.73;;;2.92;;
44036;SDS011;62488;-37.670;-63.532;2023-03-02T05:23:15;12.48;;;2.67;;
44036;SDS011;62488;-37.670;-63.532;2023-03-02T05:25:52;20.65;;;4.05;;
44036;SDS011;62488;-37.670;-63.532;2023-03-02T05:28:21;17.45;;;2.65;;
44036;SDS011;62488;-37.670;-63.532;2023-03-02T05:30:50;11.48;;;2.28;;
44036;SDS011;62488;-37.670;-63.532;2023-03-02T05:33:18;12.70;;;3.00;;
44036;SDS011;62488;-37.670;-63.532;2023-03-02T05:35:46;19.73;;;3.13;;
44036;SDS011;62488;-37.670;-63.532;2023-03-02T05:38:13;14.07;;;2.65;;
44036;SDS011;62488;-37.670;-63.532;2023-03-02T05:40:40;16.88;;;2.65;;
44036;SDS011;62488;-37.670;-63.532;2023-03-02T05:43:07;15.02;;;2.70;;
44036;SDS011;62488;-37.670;-63.532;2023-03-02T05:45:37;11.45;;;2.40;;
44036;SDS011;62488;-37.670;-63.532;2023-03-02T05:48:04;25.33;;;3.40;;
44036;SDS011;62488;-37.670;-63.532;2023-03-02T05:50:32;17.02;;;2.15;;
44036;SDS011;62488;-37.670;-63.532;2023-03-02T05:52:59;7.85;;;2.17;;
44036;SDS011;62488;-37.670;-63.532;2023-03-02T05:55:27;12.75;;;3.35;;
44036;SDS011;62488;-37.670;-63.532;2023-03-02T05:57:54;14.10;;;3.03;;
44036;SDS011;62488;-37.670;-63.532;2023-03-02T06:00:21;6.97;;;2.78;;
44036;SDS011;62488;-37.670;-63.532;2023-03-02T06:02:48;13.43;;;2.80;;
44036;SDS011;62488;-37.670;-63.532;2023-03-02T06:05:17;19.13;;;3.33;;
44036;SDS011;62488;-37.670;-63.532;2023-03-02T06:07:44;10.27;;;2.13;;
44036;SDS011;62488;-37.670;-63.532;2023-03-02T06:10:12;9.32;;;2.50;;
44036;SDS011;62488;-37.670;-63.532;2023-03-02T06:12:41;9.23;;;2.72;;
44036;SDS011;62488;-37.670;-63.532;2023-03-02T06:15:08;12.75;;;3.00;;
44036;SDS011;62488;-37.670;-63.532;2023-03-02T06:17:35;12.60;;;2.53;;
44036;SDS011;62488;-37.670;-63.532;2023-03-02T06:20:03;8.07;;;2.65;;
44036;SDS011;62488;-37.670;-63.532;2023-03-02T06:22:44;18.83;;;2.75;;
44036;SDS011;62488;-37.670;-63.532;2023-03-02T06:25:13;13.18;;;2.92;;
44036;SDS011;62488;-37.670;-63.532;2023-03-02T06:27:43;14.48;;;3.03;;
44036;SDS011;62488;-37.670;-63.532;2023-03-02T06:30:14;12.93;;;2.63;;
44036;SDS011;62488;-37.670;-63.532;2023-03-02T06:32:42;12.05;;;2.38;;
44036;SDS011;62488;-37.670;-63.532;2023-03-02T06:35:10;13.35;;;2.47;;
44036;SDS011;62488;-37.670;-63.532;2023-03-02T06:37:37;6.47;;;2.53;;
44036;SDS011;62488;-37.670;-63.532;2023-03-02T06:40:05;13.05;;;2.40;;
44036;SDS011;62488;-37.670;-63.532;2023-03-02T06:42:36;17.73;;;3.53;;
44036;SDS011;62488;-37.670;-63.532;2023-03-02T06:45:05;12.88;;;2.40;;
44036;SDS011;62488;-37.670;-63.532;2023-03-02T06:47:33;19.38;;;2.65;;
44036;SDS011;62488;-37.670;-63.532;2023-03-02T06:50:00;21.05;;;2.58;;
44036;SDS011;62488;-37.670;-63.532;2023-03-02T06:52:27;9.13;;;2.28;;
44036;SDS011;62488;-37.670;-63.532;2023-03-02T06:54:54;12.68;;;2.33;;
44036;SDS011;62488;-37.670;-63.532;2023-03-02T06:57:21;12.55;;;3.28;;
44036;SDS011;62488;-37.670;-63.532;2023-03-02T06:59:48;13.30;;;2.60;;
44036;SDS011;62488;-37.670;-63.532;2023-03-02T07:02:15;10.93;;;2.50;;
44036;SDS011;62488;-37.670;-63.532;2023-03-02T07:04:42;11.40;;;2.75;;
44036;SDS011;62488;-37.670;-63.532;2023-03-02T07:07:09;10.65;;;3.35;;
44036;SDS011;62488;-37.670;-63.532;2023-03-02T07:09:36;13.38;;;2.83;;
44036;SDS011;62488;-37.670;-63.532;2023-03-02T07:12:03;14.70;;;2.85;;
44036;SDS011;62488;-37.670;-63.532;2023-03-02T07:14:30;17.42;;;2.88;;
44036;SDS011;62488;-37.670;-63.532;2023-03-02T07:16:59;11.63;;;2.85;;
44036;SDS011;62488;-37.670;-63.532;2023-03-02T07:19:28;18.58;;;2.67;;
44036;SDS011;62488;-37.670;-63.532;2023-03-02T07:21:55;9.90;;;1.98;;
44036;SDS011;62488;-37.670;-63.532;2023-03-02T07:24:23;15.35;;;2.47;;
44036;SDS011;62488;-37.670;-63.532;2023-03-02T07:26:50;12.15;;;2.70;;
44036;SDS011;62488;-37.670;-63.532;2023-03-02T07:29:17;7.20;;;2.80;;
44036;SDS011;62488;-37.670;-63.532;2023-03-02T07:31:44;13.40;;;3.22;;
44036;SDS011;62488;-37.670;-63.532;2023-03-02T07:34:11;7.03;;;2.33;;
44036;SDS011;62488;-37.670;-63.532;2023-03-02T07:36:39;10.85;;;2.63;;
44036;SDS011;62488;-37.670;-63.532;2023-03-02T07:39:06;12.88;;;3.13;;
44036;SDS011;62488;-37.670;-63.532;2023-03-02T07:41:33;8.30;;;2.53;;
44036;SDS011;62488;-37.670;-63.532;2023-03-02T07:44:00;13.88;;;2.65;;
44036;SDS011;62488;-37.670;-63.532;2023-03-02T07:46:27;10.02;;;2.22;;
44036;SDS011;62488;-37.670;-63.532;2023-03-02T07:48:54;8.70;;;2.20;;
44036;SDS011;62488;-37.670;-63.532;2023-03-02T07:51:23;9.60;;;2.35;;
44036;SDS011;62488;-37.670;-63.532;2023-03-02T07:53:50;19.45;;;2.80;;
44036;SDS011;62488;-37.670;-63.532;2023-03-02T07:56:17;10.55;;;2.30;;
44036;SDS011;62488;-37.670;-63.532;2023-03-02T07:58:45;10.88;;;2.58;;
44036;SDS011;62488;-37.670;-63.532;2023-03-02T08:01:12;8.52;;;2.55;;
44036;SDS011;62488;-37.670;-63.532;2023-03-02T08:03:39;6.78;;;2.35;;
44036;SDS011;62488;-37.670;-63.532;2023-03-02T08:06:07;7.75;;;2.47;;
44036;SDS011;62488;-37.670;-63.532;2023-03-02T08:11:06;6.80;;;2.22;;
44036;SDS011;62488;-37.670;-63.532;2023-03-02T08:13:38;10.10;;;3.00;;
44036;SDS011;62488;-37.670;-63.532;2023-03-02T08:16:06;6.38;;;2.55;;
44036;SDS011;62488;-37.670;-63.532;2023-03-02T08:18:34;14.05;;;2.53;;
44036;SDS011;62488;-37.670;-63.532;2023-03-02T08:21:02;5.38;;;2.70;;
44036;SDS011;62488;-37.670;-63.532;2023-03-02T08:23:35;19.50;;;2.53;;
44036;SDS011;62488;-37.670;-63.532;2023-03-02T08:26:02;10.35;;;1.90;;
44036;SDS011;62488;-37.670;-63.532;2023-03-02T08:28:29;9.35;;;2.95;;
44036;SDS011;62488;-37.670;-63.532;2023-03-02T08:31:00;5.18;;;2.08;;
44036;SDS011;62488;-37.670;-63.532;2023-03-02T08:33:28;5.38;;;2.22;;
44036;SDS011;62488;-37.670;-63.532;2023-03-02T08:35:59;9.07;;;2.70;;
44036;SDS011;62488;-37.670;-63.532;2023-03-02T08:38:34;8.05;;;2.55;;
44036;SDS011;62488;-37.670;-63.532;2023-03-02T08:41:02;6.63;;;2.33;;
44036;SDS011;62488;-37.670;-63.532;2023-03-02T08:43:34;14.15;;;2.88;;
44036;SDS011;62488;-37.670;-63.532;2023-03-02T08:46:01;11.50;;;2.50;;
44036;SDS011;62488;-37.670;-63.532;2023-03-02T08:48:29;6.47;;;2.70;;
44036;SDS011;62488;-37.670;-63.532;2023-03-02T08:50:57;5.65;;;2.50;;
44036;SDS011;62488;-37.670;-63.532;2023-03-02T08:53:30;10.32;;;2.28;;
44036;SDS011;62488;-37.670;-63.532;2023-03-02T08:55:59;10.13;;;2.30;;
44036;SDS011;62488;-37.670;-63.532;2023-03-02T08:58:26;6.25;;;3.17;;
44036;SDS011;62488;-37.670;-63.532;2023-03-02T09:00:53;27.25;;;3.15;;
44036;SDS011;62488;-37.670;-63.532;2023-03-02T09:03:20;8.77;;;2.83;;
44036;SDS011;62488;-37.670;-63.532;2023-03-02T09:05:47;7.05;;;2.90;;
44036;SDS011;62488;-37.670;-63.532;2023-03-02T09:08:14;11.02;;;3.03;;
44036;SDS011;62488;-37.670;-63.532;2023-03-02T09:10:41;14.55;;;2.95;;
44036;SDS011;62488;-37.670;-63.532;2023-03-02T09:13:08;13.02;;;2.92;;
44036;SDS011;62488;-37.670;-63.532;2023-03-02T09:15:35;13.82;;;3.03;;
44036;SDS011;62488;-37.670;-63.532;2023-03-02T09:18:02;10.68;;;2.95;;
44036;SDS011;62488;-37.670;-63.532;2023-03-02T09:20:29;12.98;;;3.22;;
44036;SDS011;62488;-37.670;-63.532;2023-03-02T09:22:58;9.80;;;3.03;;
44036;SDS011;62488;-37.670;-63.532;2023-03-02T09:25:25;9.32;;;2.80;;
44036;SDS011;62488;-37.670;-63.532;2023-03-02T09:27:52;11.30;;;3.80;;
44036;SDS011;62488;-37.670;-63.532;2023-03-02T09:30:19;14.73;;;3.10;;
44036;SDS011;62488;-37.670;-63.532;2023-03-02T09:32:46;18.70;;;3.05;;
44036;SDS011;62488;-37.670;-63.532;2023-03-02T09:35:13;15.45;;;3.15;;
44036;SDS011;62488;-37.670;-63.532;2023-03-02T09:37:40;8.48;;;2.40;;
44036;SDS011;62488;-37.670;-63.532;2023-03-02T09:40:15;12.75;;;2.53;;
44036;SDS011;62488;-37.670;-63.532;2023-03-02T09:42:57;13.98;;;3.00;;
44036;SDS011;62488;-37.670;-63.532;2023-03-02T09:53:59;13.23;;;3.58;;
44036;SDS011;62488;-37.670;-63.532;2023-03-02T09:59:42;13.63;;;3.53;;
44036;SDS011;62488;-37.670;-63.532;2023-03-02T10:02:21;20.92;;;3.65;;
44036;SDS011;62488;-37.670;-63.532;2023-03-02T10:04:53;27.27;;;3.10;;
44036;SDS011;62488;-37.670;-63.532;2023-03-02T10:09:49;16.25;;;2.95;;
44036;SDS011;62488;-37.670;-63.532;2023-03-02T10:12:24;16.27;;;2.60;;
44036;SDS011;62488;-37.670;-63.532;2023-03-02T10:18:05;9.68;;;2.85;;
44036;SDS011;62488;-37.670;-63.532;2023-03-02T10:28:48;17.50;;;4.18;;
44036;SDS011;62488;-37.670;-63.532;2023-03-02T10:31:29;22.20;;;4.18;;
44036;SDS011;62488;-37.670;-63.532;2023-03-02T10:33:58;16.30;;;3.95;;
44036;SDS011;62488;-37.670;-63.532;2023-03-02T10:36:29;23.70;;;5.07;;
44036;SDS011;62488;-37.670;-63.532;2023-03-02T10:39:02;17.67;;;5.60;;
44036;SDS011;62488;-37.670;-63.532;2023-03-02T10:41:37;29.10;;;6.70;;
44036;SDS011;62488;-37.670;-63.532;2023-03-02T10:44:20;26.83;;;5.18;;
44036;SDS011;62488;-37.670;-63.532;2023-03-02T10:46:56;19.48;;;4.65;;
44036;SDS011;62488;-37.670;-63.532;2023-03-02T10:54:41;21.73;;;4.03;;
44036;SDS011;62488;-37.670;-63.532;2023-03-02T11:00:00;25.05;;;3.92;;
44036;SDS011;62488;-37.670;-63.532;2023-03-02T11:02:47;21.23;;;3.67;;
44036;SDS011;62488;-37.670;-63.532;2023-03-02T11:08:03;40.25;;;5.72;;
44036;SDS011;62488;-37.670;-63.532;2023-03-02T11:10:31;52.63;;;6.47;;
44036;SDS011;62488;-37.670;-63.532;2023-03-02T11:13:16;52.58;;;6.63;;
44036;SDS011;62488;-37.670;-63.532;2023-03-02T11:15:49;31.77;;;5.18;;
44036;SDS011;62488;-37.670;-63.532;2023-03-02T11:18:25;25.48;;;3.83;;
44036;SDS011;62488;-37.670;-63.532;2023-03-02T11:27:05;13.27;;;2.95;;
44036;SDS011;62488;-37.670;-63.532;2023-03-02T11:32:23;10.13;;;2.43;;
44036;SDS011;62488;-37.670;-63.532;2023-03-02T11:35:03;10.93;;;3.13;;
44036;SDS011;62488;-37.670;-63.532;2023-03-02T11:37:52;13.05;;;2.45;;
44036;SDS011;62488;-37.670;-63.532;2023-03-02T11:41:05;11.38;;;2.47;;
44036;SDS011;62488;-37.670;-63.532;2023-03-02T11:43:15;21.58;;;2.95;;
44036;SDS011;62488;-37.670;-63.532;2023-03-02T11:45:51;27.23;;;4.65;;
44036;SDS011;62488;-37.670;-63.532;2023-03-02T11:48:28;14.65;;;3.20;;
44036;SDS011;62488;-37.670;-63.532;2023-03-02T11:51:10;12.57;;;3.20;;
44036;SDS011;62488;-37.670;-63.532;2023-03-02T11:56:10;24.00;;;3.60;;
44036;SDS011;62488;-37.670;-63.532;2023-03-02T11:58:37;20.77;;;2.88;;
44036;SDS011;62488;-37.670;-63.532;2023-03-02T12:01:08;32.30;;;6.18;;
44036;SDS011;62488;-37.670;-63.532;2023-03-02T12:03:47;37.30;;;3.40;;
44036;SDS011;62488;-37.670;-63.532;2023-03-02T12:08:53;20.98;;;3.33;;
44036;SDS011;62488;-37.670;-63.532;2023-03-02T12:11:34;26.10;;;3.42;;
44036;SDS011;62488;-37.670;-63.532;2023-03-02T12:14:05;22.25;;;3.97;;
44036;SDS011;62488;-37.670;-63.532;2023-03-02T12:17:02;14.45;;;3.17;;
44036;SDS011;62488;-37.670;-63.532;2023-03-02T12:19:39;14.88;;;3.45;;
44036;SDS011;62488;-37.670;-63.532;2023-03-02T12:22:08;18.90;;;2.97;;
44036;SDS011;62488;-37.670;-63.532;2023-03-02T12:24:40;21.40;;;4.05;;
44036;SDS011;62488;-37.670;-63.532;2023-03-02T12:29:44;22.73;;;3.85;;
44036;SDS011;62488;-37.670;-63.532;2023-03-02T12:32:28;19.05;;;4.10;;
44036;SDS011;62488;-37.670;-63.532;2023-03-02T12:35:13;22.30;;;4.00;;
44036;SDS011;62488;-37.670;-63.532;2023-03-02T12:37:45;36.83;;;3.97;;
44036;SDS011;62488;-37.670;-63.532;2023-03-02T12:40:23;34.28;;;5.50;;
44036;SDS011;62488;-37.670;-63.532;2023-03-02T12:51:05;27.65;;;3.65;;
44036;SDS011;62488;-37.670;-63.532;2023-03-02T12:53:44;12.02;;;3.25;;
44036;SDS011;62488;-37.670;-63.532;2023-03-02T12:56:20;17.20;;;3.30;;
44036;SDS011;62488;-37.670;-63.532;2023-03-02T12:58:49;28.92;;;2.70;;
44036;SDS011;62488;-37.670;-63.532;2023-03-02T13:01:19;16.80;;;3.47;;
44036;SDS011;62488;-37.670;-63.532;2023-03-02T13:03:48;18.60;;;2.95;;
44036;SDS011;62488;-37.670;-63.532;2023-03-02T13:06:16;21.50;;;3.08;;
44036;SDS011;62488;-37.670;-63.532;2023-03-02T13:08:45;11.55;;;2.78;;
44036;SDS011;62488;-37.670;-63.532;2023-03-02T13:11:24;27.98;;;4.10;;
44036;SDS011;62488;-37.670;-63.532;2023-03-02T13:13:59;14.32;;;2.97;;
44036;SDS011;62488;-37.670;-63.532;2023-03-02T13:16:51;9.10;;;2.30;;
44036;SDS011;62488;-37.670;-63.532;2023-03-02T13:19:23;17.42;;;3.08;;
44036;SDS011;62488;-37.670;-63.532;2023-03-02T13:21:52;14.93;;;3.45;;
44036;SDS011;62488;-37.670;-63.532;2023-03-02T13:24:31;14.82;;;2.42;;
44036;SDS011;62488;-37.670;-63.532;2023-03-02T13:27:05;10.93;;;2.95;;
44036;SDS011;62488;-37.670;-63.532;2023-03-02T13:29:39;19.05;;;2.40;;
44036;SDS011;62488;-37.670;-63.532;2023-03-02T13:32:25;9.98;;;2.47;;
44036;SDS011;62488;-37.670;-63.532;2023-03-02T13:34:59;11.50;;;2.50;;
44036;SDS011;62488;-37.670;-63.532;2023-03-02T13:40:01;20.80;;;4.03;;
44036;SDS011;62488;-37.670;-63.532;2023-03-02T13:42:37;13.82;;;3.38;;
44036;SDS011;62488;-37.670;-63.532;2023-03-02T13:45:49;7.90;;;1.90;;
44036;SDS011;62488;-37.670;-63.532;2023-03-02T13:47:57;8.38;;;2.53;;
44036;SDS011;62488;-37.670;-63.532;2023-03-02T13:50:27;15.23;;;2.35;;
44036;SDS011;62488;-37.670;-63.532;2023-03-02T13:52:59;12.50;;;2.13;;
44036;SDS011;62488;-37.670;-63.532;2023-03-02T13:55:30;12.45;;;2.35;;
44036;SDS011;62488;-37.670;-63.532;2023-03-02T13:57:59;26.42;;;3.55;;
44036;SDS011;62488;-37.670;-63.532;2023-03-02T14:00:31;24.52;;;3.75;;
44036;SDS011;62488;-37.670;-63.532;2023-03-02T14:02:59;15.10;;;3.00;;
44036;SDS011;62488;-37.670;-63.532;2023-03-02T14:05:27;12.32;;;2.50;;
44036;SDS011;62488;-37.670;-63.532;2023-03-02T14:07:58;15.60;;;3.80;;
44036;SDS011;62488;-37.670;-63.532;2023-03-02T14:10:25;12.07;;;2.60;;
44036;SDS011;62488;-37.670;-63.532;2023-03-02T14:12:55;14.15;;;3.38;;
44036;SDS011;62488;-37.670;-63.532;2023-03-02T14:15:27;20.60;;;3.33;;
44036;SDS011;62488;-37.670;-63.532;2023-03-02T14:17:54;17.67;;;3.03;;
44036;SDS011;62488;-37.670;-63.532;2023-03-02T14:20:21;11.63;;;2.50;;
44036;SDS011;62488;-37.670;-63.532;2023-03-02T14:22:48;10.00;;;2.70;;
44036;SDS011;62488;-37.670;-63.532;2023-03-02T14:25:15;11.13;;;2.20;;
44036;SDS011;62488;-37.670;-63.532;2023-03-02T14:27:43;26.20;;;3.90;;
44036;SDS011;62488;-37.670;-63.532;2023-03-02T14:30:20;14.13;;;3.03;;
44036;SDS011;62488;-37.670;-63.532;2023-03-02T14:32:47;12.52;;;2.17;;
44036;SDS011;62488;-37.670;-63.532;2023-03-02T14:35:15;16.63;;;3.80;;
44036;SDS011;62488;-37.670;-63.532;2023-03-02T14:37:43;11.73;;;2.45;;
44036;SDS011;62488;-37.670;-63.532;2023-03-02T14:42:43;10.00;;;2.60;;
44036;SDS011;62488;-37.670;-63.532;2023-03-02T14:45:11;10.30;;;1.95;;
44036;SDS011;62488;-37.670;-63.532;2023-03-02T14:47:38;16.77;;;2.67;;
44036;SDS011;62488;-37.670;-63.532;2023-03-02T14:50:05;21.70;;;2.47;;
44036;SDS011;62488;-37.670;-63.532;2023-03-02T14:52:34;24.70;;;3.63;;
44036;SDS011;62488;-37.670;-63.532;2023-03-02T14:57:48;10.50;;;2.10;;
44036;SDS011;62488;-37.670;-63.532;2023-03-02T15:00:24;15.77;;;2.72;;
44036;SDS011;62488;-37.670;-63.532;2023-03-02T15:02:52;8.98;;;2.60;;
44036;SDS011;62488;-37.670;-63.532;2023-03-02T15:05:19;11.02;;;2.05;;
44036;SDS011;62488;-37.670;-63.532;2023-03-02T15:07:46;9.88;;;2.13;;
44036;SDS011;62488;-37.670;-63.532;2023-03-02T15:10:15;6.13;;;2.03;;
44036;SDS011;62488;-37.670;-63.532;2023-03-02T15:12:44;12.77;;;2.30;;
44036;SDS011;62488;-37.670;-63.532;2023-03-02T15:15:12;17.50;;;3.30;;
44036;SDS011;62488;-37.670;-63.532;2023-03-02T15:17:39;23.02;;;2.67;;
44036;SDS011;62488;-37.670;-63.532;2023-03-02T15:20:06;17.90;;;2.10;;
44036;SDS011;62488;-37.670;-63.532;2023-03-02T15:22:38;8.50;;;2.00;;
44036;SDS011;62488;-37.670;-63.532;2023-03-02T15:25:05;15.85;;;2.22;;
44036;SDS011;62488;-37.670;-63.532;2023-03-02T15:27:33;14.25;;;2.58;;
44036;SDS011;62488;-37.670;-63.532;2023-03-02T15:29:59;8.52;;;1.80;;
44036;SDS011;62488;-37.670;-63.532;2023-03-02T15:32:26;10.88;;;1.90;;
44036;SDS011;62488;-37.670;-63.532;2023-03-02T15:34:53;12.55;;;2.10;;
44036;SDS011;62488;-37.670;-63.532;2023-03-02T16:00:00;4.78;;;1.60;;
44036;SDS011;62488;-37.670;-63.532;2023-03-02T16:02:27;7.35;;;1.70;;
44036;SDS011;62488;-37.670;-63.532;2023-03-02T16:04:54;11.27;;;2.70;;
44036;SDS011;62488;-37.670;-63.532;2023-03-02T16:07:21;5.35;;;1.48;;
44036;SDS011;62488;-37.670;-63.532;2023-03-02T16:09:49;7.45;;;1.70;;
44036;SDS011;62488;-37.670;-63.532;2023-03-02T16:12:16;10.35;;;2.05;;
44036;SDS011;62488;-37.670;-63.532;2023-03-02T16:14:47;25.98;;;2.72;;
44036;SDS011;62488;-37.670;-63.532;2023-03-02T16:17:14;5.57;;;1.40;;
44036;SDS011;62488;-37.670;-63.532;2023-03-02T16:19:45;13.55;;;2.38;;
44036;SDS011;62488;-37.670;-63.532;2023-03-02T16:22:12;8.10;;;1.35;;
44036;SDS011;62488;-37.670;-63.532;2023-03-02T16:24:39;10.98;;;1.90;;
44036;SDS011;62488;-37.670;-63.532;2023-03-02T16:27:06;15.63;;;2.15;;
44036;SDS011;62488;-37.670;-63.532;2023-03-02T16:29:33;7.68;;;1.83;;
44036;SDS011;62488;-37.670;-63.532;2023-03-02T16:32:00;4.25;;;1.48;;
44036;SDS011;62488;-37.670;-63.532;2023-03-02T16:34:27;8.35;;;2.22;;
44036;SDS011;62488;-37.670;-63.532;2023-03-02T16:36:54;13.32;;;1.50;;
44036;SDS011;62488;-37.670;-63.532;2023-03-02T16:39:23;5.03;;;1.52;;
44036;SDS011;62488;-37.670;-63.532;2023-03-02T16:41:50;11.45;;;2.03;;